WON1920 WATK-WATT

Flight info

Callsign WON1920
Flight time 1h 24m
Altitude 13000
Route WGP
Aircraft AT76/M-SDFGIRY/S

Departure

Time 2026-05-04 06:27
Airport Tambolaka Airport (WATK)

Arrival

Time 2026-05-04 07:52
Airport El Tari Airport (WATT)
Time Latitude Longitude Altitude Speed Heading
2026-05-04 05:58 -9.41128 119.24519 160 ft 0 kts 189°
2026-05-04 06:21 -9.41138 119.24531 157 ft 0 kts 54°
2026-05-04 06:21 -9.41125 119.24534 156 ft 3 kts
2026-05-04 06:22 -9.41113 119.24539 155 ft 0 kts 47°
2026-05-04 06:22 -9.41108 119.24560 155 ft 6 kts 87°
2026-05-04 06:25 -9.40740 119.23207 159 ft 3 kts 58°
2026-05-04 06:25 -9.40740 119.23231 158 ft 5 kts 96°
2026-05-04 06:26 -9.40762 119.23375 159 ft 48 kts 100°
2026-05-04 06:26 -9.40852 119.23900 153 ft 101 kts 99°
2026-05-04 06:26 -9.40986 119.24721 167 ft 135 kts 98°
2026-05-04 06:26 -9.41167 119.25666 515 ft 138 kts 97°
2026-05-04 06:27 -9.41911 119.29858 1338 ft 173 kts 99°
2026-05-04 06:28 -9.42117 119.31065 1591 ft 173 kts 99°
2026-05-04 06:28 -9.42317 119.32249 1876 ft 170 kts 99°
2026-05-04 06:28 -9.42518 119.33428 2208 ft 170 kts 102°
2026-05-04 06:28 -9.43148 119.34440 2602 ft 175 kts 139°
2026-05-04 06:29 -9.44039 119.35279 3094 ft 175 kts 133°
2026-05-04 06:29 -9.44886 119.36175 3520 ft 175 kts 131°
2026-05-04 06:29 -9.45720 119.37079 3833 ft 176 kts 131°
2026-05-04 06:29 -9.46557 119.37996 4267 ft 179 kts 131°
2026-05-04 06:30 -9.47395 119.38912 4699 ft 176 kts 131°
2026-05-04 06:30 -9.48228 119.39826 5100 ft 177 kts 131°
2026-05-04 06:30 -9.49051 119.40753 5379 ft 181 kts 130°
2026-05-04 06:30 -9.49889 119.41708 5690 ft 181 kts 130°
2026-05-04 06:31 -9.50703 119.42686 6087 ft 182 kts 123°
2026-05-04 06:31 -9.51298 119.43821 6431 ft 183 kts 114°
2026-05-04 06:31 -9.51754 119.45023 6781 ft 184 kts 109°
2026-05-04 06:31 -9.52132 119.46263 7134 ft 185 kts 107°
2026-05-04 06:32 -9.52479 119.47515 7526 ft 184 kts 106°
2026-05-04 06:33 -9.54161 119.56711 9868 ft 195 kts 102°
2026-05-04 06:34 -9.54378 119.58069 10182 ft 196 kts 101°
2026-05-04 06:34 -9.54627 119.59433 10470 ft 197 kts 103°
2026-05-04 06:34 -9.54864 119.60802 10756 ft 199 kts 102°
2026-05-04 06:34 -9.55099 119.62184 11048 ft 200 kts 102°
2026-05-04 06:35 -9.55345 119.63570 11357 ft 199 kts 102°
2026-05-04 06:36 -9.57107 119.73681 12857 ft 232 kts 102°
2026-05-04 06:37 -9.57393 119.75328 12874 ft 242 kts 102°
2026-05-04 06:37 -9.57694 119.77038 12893 ft 251 kts 103°
2026-05-04 06:37 -9.58001 119.78812 12893 ft 259 kts 102°
2026-05-04 06:37 -9.58308 119.80590 13302 ft 248 kts 103°
2026-05-04 06:38 -9.58597 119.82259 13825 ft 233 kts 103°
2026-05-04 06:38 -9.58876 119.83836 14265 ft 222 kts 103°
2026-05-04 06:40 -9.60725 119.94545 15884 ft 225 kts 102°
2026-05-04 06:40 -9.60997 119.96108 16089 ft 226 kts 102°
2026-05-04 06:40 -9.61272 119.97681 16294 ft 227 kts 102°
2026-05-04 06:40 -9.61551 119.99256 16484 ft 228 kts 102°
2026-05-04 06:41 -9.61830 120.00850 16679 ft 230 kts 102°
2026-05-04 06:41 -9.62111 120.02464 16792 ft 236 kts 102°
2026-05-04 06:41 -9.62399 120.04133 16835 ft 244 kts 102°
2026-05-04 06:41 -9.62695 120.05858 16873 ft 251 kts 102°
2026-05-04 06:42 -9.63000 120.07604 16883 ft 258 kts 102°
2026-05-04 06:42 -9.63312 120.09413 16887 ft 259 kts 102°
2026-05-04 06:42 -9.63631 120.11208 16891 ft 258 kts 102°
2026-05-04 06:44 -9.65835 120.23941 16897 ft 263 kts 101°
2026-05-04 06:44 -9.66147 120.25748 16901 ft 264 kts 102°
2026-05-04 06:44 -9.66472 120.27578 16895 ft 264 kts 101°
2026-05-04 06:45 -9.66789 120.29411 16892 ft 264 kts 102°
2026-05-04 06:45 -9.67093 120.31249 16896 ft 264 kts 101°
2026-05-04 06:45 -9.67383 120.33085 16897 ft 264 kts 101°
2026-05-04 06:45 -9.67664 120.34923 16892 ft 264 kts 100°
2026-05-04 06:46 -9.67932 120.36766 16893 ft 264 kts 100°
2026-05-04 06:46 -9.68198 120.38602 16897 ft 263 kts 100°
2026-05-04 06:46 -9.68479 120.40441 16895 ft 264 kts 100°
2026-05-04 06:46 -9.68756 120.42277 16895 ft 264 kts 100°
2026-05-04 06:48 -9.70705 120.55122 16906 ft 265 kts 100°
2026-05-04 06:48 -9.70985 120.56967 16901 ft 265 kts 101°
2026-05-04 06:49 -9.71266 120.58819 16893 ft 265 kts 100°
2026-05-04 06:50 -9.73204 120.71699 16894 ft 263 kts 100°
2026-05-04 06:51 -9.73478 120.73510 16895 ft 263 kts 100°
2026-05-04 06:51 -9.73752 120.75349 16893 ft 266 kts 101°
2026-05-04 06:51 -9.74032 120.77222 16897 ft 270 kts 100°
2026-05-04 06:51 -9.74319 120.79123 16892 ft 274 kts 101°
2026-05-04 06:52 -9.74611 120.81044 16895 ft 277 kts 100°
2026-05-04 06:52 -9.74904 120.82991 16893 ft 280 kts 100°
2026-05-04 06:52 -9.75199 120.84950 16892 ft 282 kts 100°
2026-05-04 06:52 -9.75493 120.86921 16894 ft 284 kts 100°
2026-05-04 06:53 -9.75791 120.88884 16891 ft 285 kts 100°
2026-05-04 06:53 -9.76089 120.90875 16892 ft 286 kts 100°
2026-05-04 06:53 -9.76388 120.92873 16893 ft 287 kts 100°
2026-05-04 06:53 -9.76683 120.94878 16893 ft 287 kts 100°
2026-05-04 06:54 -9.76986 120.96886 16891 ft 288 kts 100°
2026-05-04 06:54 -9.77289 120.98898 16892 ft 288 kts 100°
2026-05-04 06:54 -9.77592 121.00906 16891 ft 289 kts 100°
2026-05-04 06:54 -9.77894 121.02924 16892 ft 289 kts 100°
2026-05-04 06:55 -9.78194 121.04921 16894 ft 289 kts 100°
2026-05-04 06:55 -9.78490 121.06937 16891 ft 289 kts 100°
2026-05-04 06:55 -9.78795 121.08953 16891 ft 290 kts 100°
2026-05-04 06:55 -9.79099 121.10974 16887 ft 290 kts 100°
2026-05-04 06:56 -9.79395 121.12999 16888 ft 290 kts 100°
2026-05-04 06:57 -9.81411 121.26485 16894 ft 290 kts 100°
2026-05-04 06:58 -9.81710 121.28506 16891 ft 290 kts 100°
2026-05-04 06:58 -9.82012 121.30531 16892 ft 290 kts 100°
2026-05-04 06:58 -9.82310 121.32555 16894 ft 290 kts 100°
2026-05-04 06:58 -9.82616 121.34579 16891 ft 290 kts 100°
2026-05-04 06:59 -9.82918 121.36581 16891 ft 290 kts 100°
2026-05-04 06:59 -9.83212 121.38606 16893 ft 290 kts 100°
2026-05-04 06:59 -9.83510 121.40631 16893 ft 290 kts 100°
2026-05-04 06:59 -9.83814 121.42659 16894 ft 291 kts 100°
2026-05-04 07:01 -9.85922 121.56855 16888 ft 291 kts 100°
2026-05-04 07:01 -9.86222 121.58884 16892 ft 291 kts 100°
2026-05-04 07:02 -9.86518 121.60913 16892 ft 291 kts 100°
2026-05-04 07:02 -9.86821 121.62941 16892 ft 291 kts 100°
2026-05-04 07:02 -9.87122 121.64969 16893 ft 291 kts 101°
2026-05-04 07:02 -9.87425 121.66999 16887 ft 291 kts 100°
2026-05-04 07:03 -9.87720 121.69026 16890 ft 291 kts 100°
2026-05-04 07:03 -9.88019 121.71056 16892 ft 291 kts 100°
2026-05-04 07:03 -9.88313 121.73062 16892 ft 291 kts 100°
2026-05-04 07:03 -9.88616 121.75092 16895 ft 291 kts 100°
2026-05-04 07:04 -9.88917 121.77125 16893 ft 292 kts 100°
2026-05-04 07:04 -9.89218 121.79158 16892 ft 292 kts 99°
2026-05-04 07:04 -9.89511 121.81193 16890 ft 292 kts 99°
2026-05-04 07:04 -9.89809 121.83230 16891 ft 292 kts 100°
2026-05-04 07:05 -9.90113 121.85266 16888 ft 292 kts 99°
2026-05-04 07:05 -9.90414 121.87296 16889 ft 291 kts 100°
2026-05-04 07:05 -9.90716 121.89329 16890 ft 291 kts 99°
2026-05-04 07:05 -9.91007 121.91367 16888 ft 291 kts 100°
2026-05-04 07:06 -9.91667 121.95286 16887 ft 269 kts 102°
2026-05-04 07:06 -9.91948 121.97142 16887 ft 264 kts 100°
2026-05-04 07:06 -9.92195 121.98957 16890 ft 260 kts 97°
2026-05-04 07:07 -9.92427 122.00763 16891 ft 256 kts 100°
2026-05-04 07:08 -9.94256 122.13128 16892 ft 258 kts 98°
2026-05-04 07:09 -9.94472 122.14977 16893 ft 268 kts 98°
2026-05-04 07:09 -9.94714 122.16832 16891 ft 268 kts 99°
2026-05-04 07:09 -9.94997 122.18701 16890 ft 267 kts 100°
2026-05-04 07:09 -9.95288 122.20554 16886 ft 265 kts 100°
2026-05-04 07:10 -9.95558 122.22393 16889 ft 262 kts 99°
2026-05-04 07:10 -9.95822 122.24218 16890 ft 260 kts 99°
2026-05-04 07:12 -9.97653 122.36766 16884 ft 254 kts 99°
2026-05-04 07:12 -9.97911 122.38539 16883 ft 254 kts 99°
2026-05-04 07:12 -9.98169 122.40313 16885 ft 254 kts 99°
2026-05-04 07:12 -9.98427 122.42081 16886 ft 254 kts 99°
2026-05-04 07:13 -9.98686 122.43853 16888 ft 253 kts 99°
2026-05-04 07:13 -9.98943 122.45622 16885 ft 253 kts 99°
2026-05-04 07:13 -9.99196 122.47370 16888 ft 253 kts 99°
2026-05-04 07:14 -10.00225 122.54452 16883 ft 254 kts 99°
2026-05-04 07:14 -10.00483 122.56226 16885 ft 254 kts 99°
2026-05-04 07:15 -10.00737 122.58001 16883 ft 254 kts 99°
2026-05-04 07:15 -10.00994 122.59776 16883 ft 254 kts 99°
2026-05-04 07:15 -10.01252 122.61549 16882 ft 254 kts 99°
2026-05-04 07:15 -10.01510 122.63324 16881 ft 254 kts 99°
2026-05-04 07:16 -10.01766 122.65099 16883 ft 254 kts 99°
2026-05-04 07:16 -10.02018 122.66855 16885 ft 254 kts 99°
2026-05-04 07:16 -10.02274 122.68629 16885 ft 255 kts 99°
2026-05-04 07:16 -10.02534 122.70406 16884 ft 255 kts 100°
2026-05-04 07:17 -10.02795 122.72184 16885 ft 255 kts 99°
2026-05-04 07:17 -10.03050 122.73966 16883 ft 255 kts 99°
2026-05-04 07:17 -10.03304 122.75751 16883 ft 255 kts 99°
2026-05-04 07:17 -10.03562 122.77537 16880 ft 255 kts 99°
2026-05-04 07:18 -10.03820 122.79319 16883 ft 255 kts 100°
2026-05-04 07:18 -10.04080 122.81101 16882 ft 256 kts 99°
2026-05-04 07:18 -10.04337 122.82886 16881 ft 256 kts 99°
2026-05-04 07:18 -10.04587 122.84654 16880 ft 256 kts 99°
2026-05-04 07:19 -10.04844 122.86439 16877 ft 256 kts 100°
2026-05-04 07:19 -10.05103 122.88230 16879 ft 256 kts 99°
2026-05-04 07:19 -10.05370 122.90059 16553 ft 269 kts 100°
2026-05-04 07:19 -10.05660 122.91980 16186 ft 279 kts 100°
2026-05-04 07:20 -10.05965 122.93938 15810 ft 282 kts 100°
2026-05-04 07:20 -10.06266 122.95915 15434 ft 284 kts 99°
2026-05-04 07:20 -10.06552 122.97906 15053 ft 286 kts 99°
2026-05-04 07:20 -10.06833 122.99911 14677 ft 287 kts 99°
2026-05-04 07:22 -10.08780 123.13625 11965 ft 281 kts 99°
2026-05-04 07:22 -10.09062 123.15579 11579 ft 278 kts 99°
2026-05-04 07:23 -10.09338 123.17511 11204 ft 275 kts 99°
2026-05-04 07:23 -10.09610 123.19425 10835 ft 273 kts 98°
2026-05-04 07:23 -10.09880 123.21321 10467 ft 271 kts 99°
2026-05-04 07:23 -10.10148 123.23203 10105 ft 268 kts 99°
2026-05-04 07:24 -10.10413 123.25067 9740 ft 266 kts 98°
2026-05-04 07:24 -10.10680 123.26921 9344 ft 264 kts 98°
2026-05-04 07:24 -10.10940 123.28730 8963 ft 260 kts 98°
2026-05-04 07:24 -10.11198 123.30534 8580 ft 257 kts 98°
2026-05-04 07:25 -10.11450 123.32315 8202 ft 253 kts 98°
2026-05-04 07:26 -10.19962 123.39600 5857 ft 243 kts 152°
2026-05-04 07:27 -10.21437 123.40401 5480 ft 237 kts 137°
2026-05-04 07:27 -10.22294 123.41768 5139 ft 229 kts 103°
2026-05-04 07:27 -10.22501 123.43356 4824 ft 226 kts 91°
2026-05-04 07:27 -10.22425 123.44916 4499 ft 212 kts 83°
2026-05-04 07:28 -10.22173 123.46304 4195 ft 194 kts 78°
2026-05-04 07:28 -10.21862 123.47591 3915 ft 182 kts 77°
2026-05-04 07:28 -10.21546 123.48807 3730 ft 175 kts 77°
2026-05-04 07:28 -10.21235 123.49995 3563 ft 176 kts 76°
2026-05-04 07:29 -10.20930 123.51164 3312 ft 166 kts 77°
2026-05-04 07:29 -10.20646 123.52281 3082 ft 162 kts 78°
2026-05-04 07:29 -10.20374 123.53410 2861 ft 167 kts 80°
2026-05-04 07:29 -10.20110 123.54538 2647 ft 161 kts 80°
2026-05-04 07:30 -10.19846 123.55630 2379 ft 157 kts 80°
2026-05-04 07:30 -10.19581 123.56699 2173 ft 157 kts 80°
2026-05-04 07:30 -10.19329 123.57726 2074 ft 145 kts 81°
2026-05-04 07:30 -10.19098 123.58723 1886 ft 145 kts 82°
2026-05-04 07:31 -10.18878 123.59705 1674 ft 138 kts 82°
2026-05-04 07:31 -10.18670 123.60581 1498 ft 116 kts 82°
2026-05-04 07:33 -10.17503 123.65672 489 ft 109 kts 79°
2026-05-04 07:33 -10.17328 123.66394 365 ft 102 kts 85°
2026-05-04 07:33 -10.17166 123.67074 420 ft 104 kts 83°
2026-05-04 07:33 -10.16981 123.67817 727 ft 119 kts 81°
2026-05-04 07:34 -10.16765 123.68717 995 ft 145 kts 79°
2026-05-04 07:34 -10.16468 123.69677 1640 ft 140 kts 76°
2026-05-04 07:34 -10.16150 123.70636 1924 ft 154 kts 75°
2026-05-04 07:34 -10.15776 123.71711 2147 ft 165 kts 72°
2026-05-04 07:35 -10.14939 123.72502 2628 ft 176 kts 22°
2026-05-04 07:35 -10.13707 123.72482 3079 ft 188 kts 345°
2026-05-04 07:35 -10.12715 123.71599 3451 ft 201 kts 300°
2026-05-04 07:35 -10.12513 123.70200 3829 ft 204 kts 262°
2026-05-04 07:36 -10.12744 123.68759 4192 ft 208 kts 259°
2026-05-04 07:36 -10.13219 123.67340 4416 ft 220 kts 245°
2026-05-04 07:38 -10.18871 123.57252 4479 ft 248 kts 250°
2026-05-04 07:38 -10.19346 123.55839 4476 ft 249 kts 250°
2026-05-04 07:38 -10.19893 123.54199 4465 ft 247 kts 250°
2026-05-04 07:38 -10.20436 123.52542 4487 ft 247 kts 250°
2026-05-04 07:39 -10.20982 123.50881 4479 ft 248 kts 251°
2026-05-04 07:39 -10.21474 123.49403 4481 ft 248 kts 251°
2026-05-04 07:39 -10.22023 123.47749 4482 ft 248 kts 250°
2026-05-04 07:39 -10.22568 123.46089 4487 ft 248 kts 250°
2026-05-04 07:40 -10.23110 123.44424 4483 ft 248 kts 251°
2026-05-04 07:40 -10.23654 123.42757 4497 ft 249 kts 250°
2026-05-04 07:40 -10.23886 123.41050 4473 ft 245 kts 278°
2026-05-04 07:40 -10.23591 123.39352 4487 ft 245 kts 285°
2026-05-04 07:41 -10.23116 123.37709 4486 ft 247 kts 290°
2026-05-04 07:41 -10.22566 123.36050 4465 ft 247 kts 291°
2026-05-04 07:41 -10.22179 123.34371 4463 ft 246 kts 268°
2026-05-04 07:41 -10.22711 123.32756 4471 ft 243 kts 232°
2026-05-04 07:42 -10.24011 123.31739 4472 ft 235 kts 195°
2026-05-04 07:42 -10.25564 123.31661 4482 ft 224 kts 160°
2026-05-04 07:42 -10.26606 123.32277 4477 ft 218 kts 130°
2026-05-04 07:42 -10.27158 123.33254 4477 ft 214 kts 103°
2026-05-04 07:43 -10.27194 123.34444 4480 ft 210 kts 84°
2026-05-04 07:43 -10.26929 123.35900 4465 ft 210 kts 68°
2026-05-04 07:43 -10.25966 123.36939 4471 ft 217 kts 30°
2026-05-04 07:43 -10.24548 123.37195 4485 ft 221 kts
2026-05-04 07:44 -10.23116 123.37529 4474 ft 211 kts 37°
2026-05-04 07:44 -10.22296 123.38681 4476 ft 206 kts 76°
2026-05-04 07:44 -10.22121 123.40120 4472 ft 207 kts 86°
2026-05-04 07:44 -10.22110 123.41302 4325 ft 201 kts 92°
2026-05-04 07:45 -10.22213 123.42534 4176 ft 184 kts 93°
2026-05-04 07:45 -10.22267 123.43718 4006 ft 173 kts 90°
2026-05-04 07:45 -10.22221 123.44938 3819 ft 162 kts 85°
2026-05-04 07:45 -10.22086 123.46089 3651 ft 167 kts 82°
2026-05-04 07:46 -10.21882 123.47247 3464 ft 162 kts 80°
2026-05-04 07:46 -10.21632 123.48359 3314 ft 162 kts 79°
2026-05-04 07:46 -10.21371 123.49485 3167 ft 165 kts 79°
2026-05-04 07:46 -10.21102 123.50615 3004 ft 163 kts 79°
2026-05-04 07:47 -10.20827 123.51712 2839 ft 159 kts 79°
2026-05-04 07:47 -10.20551 123.52782 2699 ft 154 kts 79°
2026-05-04 07:47 -10.20289 123.53821 2617 ft 147 kts 80°
2026-05-04 07:49 -10.18893 123.59516 1844 ft 106 kts 83°
2026-05-04 07:49 -10.18787 123.59990 1729 ft 102 kts 84°
2026-05-04 07:49 -10.18651 123.60580 1586 ft 101 kts 83°
2026-05-04 07:50 -10.18492 123.61270 1416 ft 97 kts 84°
2026-05-04 07:50 -10.18335 123.61947 1375 ft 110 kts 84°
2026-05-04 07:50 -10.18169 123.62711 1171 ft 115 kts 85°
2026-05-04 07:50 -10.18030 123.63440 1043 ft 106 kts 82°
2026-05-04 07:51 -10.17872 123.64135 846 ft 103 kts 84°
2026-05-04 07:51 -10.17705 123.64863 686 ft 104 kts 79°
2026-05-04 07:51 -10.17524 123.65566 507 ft 102 kts 85°
2026-05-04 07:51 -10.17366 123.66249 344 ft 97 kts 82°
2026-05-04 07:52 -10.17270 123.66630 346 ft 11 kts 76°
2026-05-04 07:52 -10.17248 123.66680 344 ft 4 kts 19°
2026-05-04 07:52 -10.17181 123.66667 342 ft 19 kts 348°
2026-05-04 07:52 -10.17051 123.66641 339 ft 12 kts 12°
2026-05-04 07:53 -10.17036 123.66678 341 ft 14 kts 80°
2026-05-04 07:54 -10.16964 123.66719 338 ft 0 kts 347°